sensor_id;sensor_type;location;lat;lon;timestamp;temperature;humidity
13600;DHT22;6871;51.34740610;4.31323160;2022-09-02T00:01:46;24.40;62.30
13600;DHT22;6871;51.34740610;4.31323160;2022-09-02T00:04:18;24.40;62.10
13600;DHT22;6871;51.34740610;4.31323160;2022-09-02T00:06:50;24.40;62.30
13600;DHT22;6871;51.34740610;4.31323160;2022-09-02T00:09:22;24.40;62.20
13600;DHT22;6871;51.34740610;4.31323160;2022-09-02T00:11:53;24.40;62.10
13600;DHT22;6871;51.34740610;4.31323160;2022-09-02T00:14:24;24.40;62.20
13600;DHT22;6871;51.34740610;4.31323160;2022-09-02T00:16:53;24.40;62.20
13600;DHT22;6871;51.34740610;4.31323160;2022-09-02T00:19:24;24.40;62.30
13600;DHT22;6871;51.34740610;4.31323160;2022-09-02T00:21:55;24.40;62.20
13600;DHT22;6871;51.34740610;4.31323160;2022-09-02T00:24:24;24.40;62.30
13600;DHT22;6871;51.34740610;4.31323160;2022-09-02T00:26:53;24.40;62.30
13600;DHT22;6871;51.34740610;4.31323160;2022-09-02T00:29:22;24.30;62.10
13600;DHT22;6871;51.34740610;4.31323160;2022-09-02T00:31:51;24.40;62.20
13600;DHT22;6871;51.34740610;4.31323160;2022-09-02T00:34:20;24.40;62.30
13600;DHT22;6871;51.34740610;4.31323160;2022-09-02T00:36:49;24.30;62.20
13600;DHT22;6871;51.34740610;4.31323160;2022-09-02T00:39:18;24.40;62.30
13600;DHT22;6871;51.34740610;4.31323160;2022-09-02T00:41:47;24.30;62.20
13600;DHT22;6871;51.34740610;4.31323160;2022-09-02T00:44:18;24.30;62.20
13600;DHT22;6871;51.34740610;4.31323160;2022-09-02T00:46:47;24.30;61.90
13600;DHT22;6871;51.34740610;4.31323160;2022-09-02T00:49:20;24.30;62.00
13600;DHT22;6871;51.34740610;4.31323160;2022-09-02T00:51:53;24.40;62.20
13600;DHT22;6871;51.34740610;4.31323160;2022-09-02T00:54:24;24.40;62.20
13600;DHT22;6871;51.34740610;4.31323160;2022-09-02T00:56:54;24.30;62.10
13600;DHT22;6871;51.34740610;4.31323160;2022-09-02T00:59:26;24.30;62.20
13600;DHT22;6871;51.34740610;4.31323160;2022-09-02T01:01:56;24.30;62.10
13600;DHT22;6871;51.34740610;4.31323160;2022-09-02T01:04:25;24.30;62.00
13600;DHT22;6871;51.34740610;4.31323160;2022-09-02T01:06:54;24.30;62.00
13600;DHT22;6871;51.34740610;4.31323160;2022-09-02T01:09:23;24.30;62.00
13600;DHT22;6871;51.34740610;4.31323160;2022-09-02T01:11:52;24.30;62.10
13600;DHT22;6871;51.34740610;4.31323160;2022-09-02T01:14:22;24.30;62.20
13600;DHT22;6871;51.34740610;4.31323160;2022-09-02T01:16:54;24.30;62.20
13600;DHT22;6871;51.34740610;4.31323160;2022-09-02T01:19:26;24.30;62.00
13600;DHT22;6871;51.34740610;4.31323160;2022-09-02T01:21:56;24.30;62.10
13600;DHT22;6871;51.34740610;4.31323160;2022-09-02T01:24:28;24.30;62.10
13600;DHT22;6871;51.34740610;4.31323160;2022-09-02T01:26:58;24.30;62.00
13600;DHT22;6871;51.34740610;4.31323160;2022-09-02T01:29:28;24.20;62.10
13600;DHT22;6871;51.34740610;4.31323160;2022-09-02T01:31:57;24.30;62.10
13600;DHT22;6871;51.34740610;4.31323160;2022-09-02T01:34:26;24.20;62.20
13600;DHT22;6871;51.34740610;4.31323160;2022-09-02T01:36:55;24.20;62.10
13600;DHT22;6871;51.34740610;4.31323160;2022-09-02T01:39:24;24.30;62.00
13600;DHT22;6871;51.34740610;4.31323160;2022-09-02T01:41:53;24.20;62.00
13600;DHT22;6871;51.34740610;4.31323160;2022-09-02T01:44:22;24.20;62.00
13600;DHT22;6871;51.34740610;4.31323160;2022-09-02T01:46:53;24.20;62.00
13600;DHT22;6871;51.34740610;4.31323160;2022-09-02T01:49:26;24.20;62.00
13600;DHT22;6871;51.34740610;4.31323160;2022-09-02T01:51:55;24.20;62.00
13600;DHT22;6871;51.34740610;4.31323160;2022-09-02T01:54:29;24.20;61.90
13600;DHT22;6871;51.34740610;4.31323160;2022-09-02T01:56:59;24.20;62.40
13600;DHT22;6871;51.34740610;4.31323160;2022-09-02T01:59:28;24.20;61.90
13600;DHT22;6871;51.34740610;4.31323160;2022-09-02T02:01:57;24.20;61.90
13600;DHT22;6871;51.34740610;4.31323160;2022-09-02T02:04:27;24.20;61.90
13600;DHT22;6871;51.34740610;4.31323160;2022-09-02T02:06:56;24.20;61.80
13600;DHT22;6871;51.34740610;4.31323160;2022-09-02T02:09:26;24.10;61.70
13600;DHT22;6871;51.34740610;4.31323160;2022-09-02T02:11:56;24.20;61.70
13600;DHT22;6871;51.34740610;4.31323160;2022-09-02T02:14:29;24.20;61.70
13600;DHT22;6871;51.34740610;4.31323160;2022-09-02T02:16:58;24.20;61.90
13600;DHT22;6871;51.34740610;4.31323160;2022-09-02T02:19:28;24.10;61.80
13600;DHT22;6871;51.34740610;4.31323160;2022-09-02T02:21:57;24.10;61.70
13600;DHT22;6871;51.34740610;4.31323160;2022-09-02T02:24:26;24.10;61.90
13600;DHT22;6871;51.34740610;4.31323160;2022-09-02T02:26:55;24.10;61.90
13600;DHT22;6871;51.34740610;4.31323160;2022-09-02T02:29:24;24.10;61.70
13600;DHT22;6871;51.34740610;4.31323160;2022-09-02T02:31:53;24.10;61.70
13600;DHT22;6871;51.34740610;4.31323160;2022-09-02T02:34:22;24.10;61.90
13600;DHT22;6871;51.34740610;4.31323160;2022-09-02T02:36:51;24.10;61.70
13600;DHT22;6871;51.34740610;4.31323160;2022-09-02T02:39:20;24.10;61.90
13600;DHT22;6871;51.34740610;4.31323160;2022-09-02T02:41:49;24.10;62.60
13600;DHT22;6871;51.34740610;4.31323160;2022-09-02T02:44:18;24.10;61.70
13600;DHT22;6871;51.34740610;4.31323160;2022-09-02T02:46:47;24.10;61.70
13600;DHT22;6871;51.34740610;4.31323160;2022-09-02T02:49:16;24.10;61.70
13600;DHT22;6871;51.34740610;4.31323160;2022-09-02T02:51:46;24.10;61.70
13600;DHT22;6871;51.34740610;4.31323160;2022-09-02T02:54:15;24.10;61.70
13600;DHT22;6871;51.34740610;4.31323160;2022-09-02T02:56:44;24.10;61.80
13600;DHT22;6871;51.34740610;4.31323160;2022-09-02T02:59:13;24.10;61.70
13600;DHT22;6871;51.34740610;4.31323160;2022-09-02T03:01:42;24.10;61.70
13600;DHT22;6871;51.34740610;4.31323160;2022-09-02T03:04:11;24.10;61.70
13600;DHT22;6871;51.34740610;4.31323160;2022-09-02T03:06:40;24.10;61.70
13600;DHT22;6871;51.34740610;4.31323160;2022-09-02T03:09:09;24.00;61.60
13600;DHT22;6871;51.34740610;4.31323160;2022-09-02T03:11:38;24.10;61.70
13600;DHT22;6871;51.34740610;4.31323160;2022-09-02T03:14:07;24.10;61.70
13600;DHT22;6871;51.34740610;4.31323160;2022-09-02T03:16:36;24.00;61.60
13600;DHT22;6871;51.34740610;4.31323160;2022-09-02T03:19:05;24.10;61.70
13600;DHT22;6871;51.34740610;4.31323160;2022-09-02T03:21:34;24.00;61.60
13600;DHT22;6871;51.34740610;4.31323160;2022-09-02T03:24:04;24.00;61.60
13600;DHT22;6871;51.34740610;4.31323160;2022-09-02T03:26:33;24.00;61.70
13600;DHT22;6871;51.34740610;4.31323160;2022-09-02T03:29:02;24.00;61.60
13600;DHT22;6871;51.34740610;4.31323160;2022-09-02T03:31:31;24.00;61.60
13600;DHT22;6871;51.34740610;4.31323160;2022-09-02T03:34:00;24.00;61.60
13600;DHT22;6871;51.34740610;4.31323160;2022-09-02T03:36:33;24.00;61.60
13600;DHT22;6871;51.34740610;4.31323160;2022-09-02T03:39:04;24.00;61.60
13600;DHT22;6871;51.34740610;4.31323160;2022-09-02T03:41:33;24.00;61.50
13600;DHT22;6871;51.34740610;4.31323160;2022-09-02T03:44:03;24.00;61.60
13600;DHT22;6871;51.34740610;4.31323160;2022-09-02T03:46:32;24.00;61.50
13600;DHT22;6871;51.34740610;4.31323160;2022-09-02T03:49:02;24.00;61.50
13600;DHT22;6871;51.34740610;4.31323160;2022-09-02T03:51:31;24.00;61.40
13600;DHT22;6871;51.34740610;4.31323160;2022-09-02T03:54:00;24.00;61.60
13600;DHT22;6871;51.34740610;4.31323160;2022-09-02T03:56:30;23.90;61.60
13600;DHT22;6871;51.34740610;4.31323160;2022-09-02T03:59:00;24.00;61.40
13600;DHT22;6871;51.34740610;4.31323160;2022-09-02T04:01:29;23.90;61.40
13600;DHT22;6871;51.34740610;4.31323160;2022-09-02T04:03:58;24.00;61.40
13600;DHT22;6871;51.34740610;4.31323160;2022-09-02T04:06:28;24.00;61.30
13600;DHT22;6871;51.34740610;4.31323160;2022-09-02T04:08:58;24.00;61.50
13600;DHT22;6871;51.34740610;4.31323160;2022-09-02T04:11:27;23.90;61.40
13600;DHT22;6871;51.34740610;4.31323160;2022-09-02T04:13:57;23.90;61.30
13600;DHT22;6871;51.34740610;4.31323160;2022-09-02T04:16:26;23.90;61.50
13600;DHT22;6871;51.34740610;4.31323160;2022-09-02T04:18:57;23.90;61.50
13600;DHT22;6871;51.34740610;4.31323160;2022-09-02T04:21:30;23.90;61.30
13600;DHT22;6871;51.34740610;4.31323160;2022-09-02T04:23:58;23.90;61.30
13600;DHT22;6871;51.34740610;4.31323160;2022-09-02T04:26:28;23.90;61.50
13600;DHT22;6871;51.34740610;4.31323160;2022-09-02T04:28:57;23.90;61.40
13600;DHT22;6871;51.34740610;4.31323160;2022-09-02T04:31:27;23.90;61.50
13600;DHT22;6871;51.34740610;4.31323160;2022-09-02T04:33:58;23.90;61.30
13600;DHT22;6871;51.34740610;4.31323160;2022-09-02T04:36:27;23.90;61.30
13600;DHT22;6871;51.34740610;4.31323160;2022-09-02T04:38:57;23.90;61.30
13600;DHT22;6871;51.34740610;4.31323160;2022-09-02T04:41:28;23.90;61.30
13600;DHT22;6871;51.34740610;4.31323160;2022-09-02T04:43:58;23.90;61.20
13600;DHT22;6871;51.34740610;4.31323160;2022-09-02T04:46:28;23.90;61.30
13600;DHT22;6871;51.34740610;4.31323160;2022-09-02T04:48:57;23.90;61.30
13600;DHT22;6871;51.34740610;4.31323160;2022-09-02T04:51:27;23.90;61.20
13600;DHT22;6871;51.34740610;4.31323160;2022-09-02T04:53:57;23.80;61.30
13600;DHT22;6871;51.34740610;4.31323160;2022-09-02T04:56:27;23.80;61.20
13600;DHT22;6871;51.34740610;4.31323160;2022-09-02T04:58:57;23.90;61.30
13600;DHT22;6871;51.34740610;4.31323160;2022-09-02T05:01:28;23.80;61.10
13600;DHT22;6871;51.34740610;4.31323160;2022-09-02T05:03:58;23.80;61.00
13600;DHT22;6871;51.34740610;4.31323160;2022-09-02T05:06:29;23.90;61.10
13600;DHT22;6871;51.34740610;4.31323160;2022-09-02T05:08:58;23.80;61.10
13600;DHT22;6871;51.34740610;4.31323160;2022-09-02T05:11:29;23.80;61.40
13600;DHT22;6871;51.34740610;4.31323160;2022-09-02T05:14:02;23.80;61.20
13600;DHT22;6871;51.34740610;4.31323160;2022-09-02T05:16:34;23.80;61.30
13600;DHT22;6871;51.34740610;4.31323160;2022-09-02T05:19:05;23.80;61.30
13600;DHT22;6871;51.34740610;4.31323160;2022-09-02T05:21:35;23.80;61.20
13600;DHT22;6871;51.34740610;4.31323160;2022-09-02T05:24:05;23.80;61.30
13600;DHT22;6871;51.34740610;4.31323160;2022-09-02T05:26:35;23.80;61.20
13600;DHT22;6871;51.34740610;4.31323160;2022-09-02T05:29:04;23.80;61.30
13600;DHT22;6871;51.34740610;4.31323160;2022-09-02T05:31:35;23.80;61.10
13600;DHT22;6871;51.34740610;4.31323160;2022-09-02T05:34:04;23.80;61.10
13600;DHT22;6871;51.34740610;4.31323160;2022-09-02T05:36:33;23.80;61.70
13600;DHT22;6871;51.34740610;4.31323160;2022-09-02T05:39:02;23.80;61.10
13600;DHT22;6871;51.34740610;4.31323160;2022-09-02T05:41:33;23.70;60.90
13600;DHT22;6871;51.34740610;4.31323160;2022-09-02T05:44:03;23.80;61.20
13600;DHT22;6871;51.34740610;4.31323160;2022-09-02T05:46:34;23.80;60.90
13600;DHT22;6871;51.34740610;4.31323160;2022-09-02T05:49:04;23.70;60.90
13600;DHT22;6871;51.34740610;4.31323160;2022-09-02T05:51:39;23.70;61.00
13600;DHT22;6871;51.34740610;4.31323160;2022-09-02T05:54:10;23.70;61.00
13600;DHT22;6871;51.34740610;4.31323160;2022-09-02T05:56:41;23.70;61.10
13600;DHT22;6871;51.34740610;4.31323160;2022-09-02T05:59:11;23.80;61.00
13600;DHT22;6871;51.34740610;4.31323160;2022-09-02T06:01:40;23.70;60.80
13600;DHT22;6871;51.34740610;4.31323160;2022-09-02T06:04:10;23.70;60.70
13600;DHT22;6871;51.34740610;4.31323160;2022-09-02T06:06:39;23.70;61.00
13600;DHT22;6871;51.34740610;4.31323160;2022-09-02T06:09:10;23.70;61.00
13600;DHT22;6871;51.34740610;4.31323160;2022-09-02T06:11:41;23.70;61.00
13600;DHT22;6871;51.34740610;4.31323160;2022-09-02T06:14:12;23.70;60.90
13600;DHT22;6871;51.34740610;4.31323160;2022-09-02T06:16:42;23.70;60.80
13600;DHT22;6871;51.34740610;4.31323160;2022-09-02T06:19:11;23.70;60.70
13600;DHT22;6871;51.34740610;4.31323160;2022-09-02T06:21:40;23.70;61.00
13600;DHT22;6871;51.34740610;4.31323160;2022-09-02T06:24:11;23.70;61.00
13600;DHT22;6871;51.34740610;4.31323160;2022-09-02T06:26:41;23.70;61.00
13600;DHT22;6871;51.34740610;4.31323160;2022-09-02T06:29:10;23.70;60.90
13600;DHT22;6871;51.34740610;4.31323160;2022-09-02T06:31:42;23.70;60.70
13600;DHT22;6871;51.34740610;4.31323160;2022-09-02T06:34:11;23.70;60.60
13600;DHT22;6871;51.34740610;4.31323160;2022-09-02T06:36:43;23.60;60.70
13600;DHT22;6871;51.34740610;4.31323160;2022-09-02T06:39:15;23.60;59.90
13600;DHT22;6871;51.34740610;4.31323160;2022-09-02T06:41:46;23.50;60.00
13600;DHT22;6871;51.34740610;4.31323160;2022-09-02T06:44:16;23.50;60.60
13600;DHT22;6871;51.34740610;4.31323160;2022-09-02T06:46:47;23.50;60.70
13600;DHT22;6871;51.34740610;4.31323160;2022-09-02T06:49:17;23.50;60.70
13600;DHT22;6871;51.34740610;4.31323160;2022-09-02T06:51:47;23.60;60.50
